Wetterdaten: Woche 01.06.15 - 07.06.15 (KW23)
Datum Zeit Temp. Aussen +5cm Feuchte Auss BlattFeu 1 Luftdruck Regen Sonnenschein Regendauer Solar Windben
01.06.2015 00:00 14,5 C 12,7 C 95 % 15 lf 1009,9 hPa 0,6 l/m 0,00 h 0,85 h 0 W/m 34,3 km/h (5 Bft)
01.06.2015 01:00 13,2 C 11,9 C 95 % 15 lf 1010,8 hPa 0,4 l/m 0,00 h 0,80 h 0 W/m 31,7 km/h (5 Bft)
01.06.2015 02:00 11,6 C 10,9 C 94 % 15 lf 1012,2 hPa 0,0 l/m 0,00 h 0,47 h 0 W/m 17,4 km/h (3 Bft)
01.06.2015 03:00 10,9 C 10,6 C 94 % 15 lf 1012,9 hPa 0,2 l/m 0,00 h 0,10 h 0 W/m 7,5 km/h (2 Bft)
01.06.2015 04:00 10,4 C 9,9 C 94 % 15 lf 1013,4 hPa 0,0 l/m 0,00 h 0,00 h 0 W/m 4,9 km/h (1 Bft)
01.06.2015 05:00 9,7 C 9,4 C 94 % 15 lf 1014,1 hPa 0,0 l/m 0,00 h 0,00 h 14 W/m 5,5 km/h (1 Bft)
01.06.2015 06:00 9,8 C 10,0 C 95 % 15 lf 1014,7 hPa 0,0 l/m 0,03 h 0,00 h 54 W/m 8,1 km/h (2 Bft)
01.06.2015 07:00 10,5 C 10,5 C 96 % 15 lf 1015,3 hPa 0,0 l/m 0,67 h 0,00 h 169 W/m 10,7 km/h (2 Bft)
01.06.2015 08:00 11,7 C 11,4 C 97 % 3 lf 1015,7 hPa 0,0 l/m 0,57 h 0,00 h 227 W/m 12,0 km/h (2 Bft)
01.06.2015 09:00 13,0 C 12,4 C 90 % 0 lf 1016,0 hPa 0,0 l/m 0,97 h 0,00 h 361 W/m 10,8 km/h (2 Bft)
01.06.2015 10:00 15,0 C 14,1 C 74 % 0 lf 1016,2 hPa 0,0 l/m 1,00 h 0,00 h 530 W/m 11,5 km/h (2 Bft)
01.06.2015 11:00 15,7 C 13,8 C 69 % 0 lf 1016,5 hPa 0,0 l/m 0,20 h 0,00 h 351 W/m 15,0 km/h (3 Bft)
01.06.2015 12:00 16,0 C 14,8 C 70 % 0 lf 1016,5 hPa 0,0 l/m 0,60 h 0,00 h 439 W/m 18,0 km/h (3 Bft)
01.06.2015 13:00 17,1 C 16,5 C 62 % 0 lf 1016,4 hPa 0,0 l/m 1,00 h 0,00 h 672 W/m 22,1 km/h (4 Bft)
01.06.2015 14:00 18,4 C 17,8 C 56 % 0 lf 1016,5 hPa 0,0 l/m 0,90 h 0,00 h 804 W/m 27,9 km/h (4 Bft)
01.06.2015 15:00 19,2 C 19,0 C 54 % 0 lf 1016,4 hPa 0,0 l/m 0,83 h 0,00 h 674 W/m 22,5 km/h (4 Bft)
01.06.2015 16:00 19,1 C 17,8 C 50 % 0 lf 1016,0 hPa 0,0 l/m 0,87 h 0,00 h 634 W/m 23,6 km/h (4 Bft)
01.06.2015 17:00 19,1 C 15,8 C 47 % 0 lf 1015,5 hPa 0,0 l/m 1,00 h 0,00 h 567 W/m 23,0 km/h (4 Bft)
01.06.2015 18:00 17,8 C 14,5 C 48 % 0 lf 1015,0 hPa 0,0 l/m 0,97 h 0,00 h 382 W/m 23,2 km/h (4 Bft)
01.06.2015 19:00 17,0 C 14,2 C 53 % 0 lf 1014,5 hPa 0,0 l/m 0,40 h 0,00 h 149 W/m 16,1 km/h (3 Bft)
01.06.2015 20:00 16,3 C 13,7 C 56 % 0 lf 1014,2 hPa 0,0 l/m 0,00 h 0,00 h 36 W/m 7,9 km/h (2 Bft)
01.06.2015 21:00 15,7 C 12,8 C 59 % 0 lf 1013,9 hPa 0,0 l/m 0,00 h 0,00 h 10 W/m 7,0 km/h (2 Bft)
01.06.2015 22:00 14,7 C 12,2 C 64 % 0 lf 1013,8 hPa 0,0 l/m 0,00 h 0,00 h 0 W/m 8,4 km/h (2 Bft)
01.06.2015 23:00 14,1 C 11,9 C 65 % 0 lf 1013,4 hPa 0,0 l/m 0,00 h 0,00 h 0 W/m 15,3 km/h (3 Bft)
02.06.2015 00:00 13,3 C 11,2 C 68 % 0 lf 1013,0 hPa 0,0 l/m 0,00 h 0,00 h 0 W/m 16,4 km/h (3 Bft)
02.06.2015 01:00 12,7 C 11,0 C 70 % 0 lf 1012,8 hPa 0,0 l/m 0,00 h 0,00 h 0 W/m 21,5 km/h (4 Bft)
02.06.2015 02:00 12,7 C 11,0 C 71 % 0 lf 1012,3 hPa 0,0 l/m 0,00 h 0,00 h 0 W/m 24,5 km/h (4 Bft)
02.06.2015 03:00 12,4 C 10,7 C 73 % 0 lf 1011,6 hPa 0,0 l/m 0,00 h 0,00 h 0 W/m 22,6 km/h (4 Bft)
02.06.2015 04:00 12,0 C 10,6 C 77 % 0 lf 1010,8 hPa 0,0 l/m 0,00 h 0,07 h 0 W/m 23,2 km/h (4 Bft)
02.06.2015 05:00 12,0 C 10,1 C 83 % 9 lf 1010,4 hPa 0,4 l/m 0,00 h 0,97 h 7 W/m 19,2 km/h (3 Bft)
02.06.2015 06:00 11,8 C 10,3 C 89 % 8 lf 1010,4 hPa 0,0 l/m 0,00 h 0,97 h 33 W/m 22,9 km/h (4 Bft)
02.06.2015 07:00 12,3 C 10,6 C 88 % 8 lf 1010,4 hPa 0,2 l/m 0,00 h 0,47 h 81 W/m 29,6 km/h (5 Bft)
02.06.2015 08:00 13,1 C 11,5 C 83 % 0 lf 1010,3 hPa 0,0 l/m 0,00 h 0,00 h 126 W/m 30,4 km/h (5 Bft)
02.06.2015 09:00 14,2 C 12,4 C 75 % 0 lf 1010,4 hPa 0,0 l/m 0,00 h 0,00 h 171 W/m 33,8 km/h (5 Bft)
02.06.2015 10:00 15,7 C 13,6 C 73 % 0 lf 1010,7 hPa 0,0 l/m 0,10 h 0,17 h 216 W/m 36,6 km/h (5 Bft)
02.06.2015 11:00 15,7 C 13,1 C 76 % 0 lf 1010,8 hPa 0,0 l/m 0,00 h 0,20 h 110 W/m 39,4 km/h (6 Bft)
02.06.2015 12:00 16,2 C 14,3 C 77 % 0 lf 1010,9 hPa 0,0 l/m 0,00 h 0,03 h 198 W/m 36,1 km/h (5 Bft)
02.06.2015 13:00 18,7 C 17,5 C 73 % 0 lf 1010,7 hPa 0,0 l/m 0,63 h 0,00 h 592 W/m 50,5 km/h (7 Bft)
02.06.2015 14:00 19,8 C 17,5 C 70 % 0 lf 1010,9 hPa 0,0 l/m 0,07 h 0,00 h 267 W/m 49,0 km/h (6 Bft)
02.06.2015 15:00 19,3 C 17,3 C 72 % 0 lf 1011,4 hPa 0,0 l/m 0,00 h 0,00 h 242 W/m 45,2 km/h (6 Bft)
02.06.2015 16:00 19,5 C 17,2 C 71 % 0 lf 1011,7 hPa 0,0 l/m 0,00 h 0,00 h 165 W/m 39,7 km/h (6 Bft)
02.06.2015 17:00 19,9 C 17,0 C 71 % 0 lf 1011,7 hPa 0,0 l/m 0,00 h 0,00 h 145 W/m 36,0 km/h (5 Bft)
02.06.2015 18:00 20,2 C 17,1 C 71 % 0 lf 1011,7 hPa 0,0 l/m 0,00 h 0,00 h 81 W/m 28,5 km/h (4 Bft)
02.06.2015 19:00 20,0 C 16,8 C 73 % 0 lf 1012,2 hPa 0,0 l/m 0,00 h 0,00 h 54 W/m 31,7 km/h (5 Bft)
02.06.2015 20:00 20,1 C 16,9 C 71 % 0 lf 1012,6 hPa 0,0 l/m 0,40 h 0,00 h 72 W/m 40,7 km/h (6 Bft)
02.06.2015 21:00 19,5 C 16,1 C 72 % 0 lf 1012,8 hPa 0,0 l/m 0,00 h 0,00 h 15 W/m 34,9 km/h (5 Bft)
02.06.2015 22:00 18,9 C 15,7 C 76 % 0 lf 1013,0 hPa 0,0 l/m 0,00 h 0,00 h 0 W/m 29,8 km/h (5 Bft)
02.06.2015 23:00 18,8 C 15,7 C 78 % 0 lf 1013,2 hPa 0,0 l/m 0,00 h 0,00 h 0 W/m 24,5 km/h (4 Bft)
03.06.2015 00:00 18,5 C 15,6 C 78 % 0 lf 1013,3 hPa 0,0 l/m 0,00 h 0,00 h 0 W/m 27,6 km/h (4 Bft)
03.06.2015 01:00 18,5 C 15,6 C 76 % 0 lf 1013,5 hPa 0,0 l/m 0,00 h 0,00 h 0 W/m 36,3 km/h (5 Bft)
03.06.2015 02:00 18,6 C 15,6 C 75 % 0 lf 1013,6 hPa 0,0 l/m 0,00 h 0,00 h 0 W/m 33,8 km/h (5 Bft)
03.06.2015 03:00 18,4 C 15,6 C 76 % 0 lf 1014,0 hPa 0,0 l/m 0,00 h 0,00 h 0 W/m 31,2 km/h (5 Bft)
03.06.2015 04:00 17,9 C 15,2 C 78 % 0 lf 1014,4 hPa 0,0 l/m 0,00 h 0,00 h 0 W/m 28,1 km/h (4 Bft)
03.06.2015 05:00 16,1 C 13,5 C 86 % 14 lf 1015,4 hPa 0,4 l/m 0,00 h 0,50 h 8 W/m 29,2 km/h (5 Bft)
03.06.2015 06:00 13,7 C 12,2 C 89 % 15 lf 1016,4 hPa 0,0 l/m 0,00 h 0,00 h 35 W/m 26,4 km/h (4 Bft)
03.06.2015 07:00 13,9 C 12,8 C 86 % 0 lf 1017,4 hPa 0,0 l/m 0,23 h 0,00 h 118 W/m 24,6 km/h (4 Bft)
03.06.2015 08:00 14,7 C 13,5 C 82 % 0 lf 1018,2 hPa 0,0 l/m 0,90 h 0,00 h 248 W/m 31,7 km/h (5 Bft)
03.06.2015 09:00 16,0 C 14,3 C 74 % 0 lf 1019,0 hPa 0,0 l/m 0,87 h 0,00 h 427 W/m 32,6 km/h (5 Bft)
03.06.2015 10:00 16,3 C 15,0 C 72 % 0 lf 1019,9 hPa 0,2 l/m 0,40 h 0,00 h 308 W/m 32,5 km/h (5 Bft)
03.06.2015 11:00 18,0 C 16,7 C 64 % 0 lf 1020,6 hPa 0,0 l/m 0,57 h 0,00 h 557 W/m 33,6 km/h (5 Bft)
03.06.2015 12:00 19,1 C 17,6 C 58 % 0 lf 1021,3 hPa 0,0 l/m 0,53 h 0,00 h 569 W/m 32,9 km/h (5 Bft)
03.06.2015 13:00 18,9 C 17,7 C 58 % 0 lf 1022,0 hPa 0,0 l/m 0,30 h 0,00 h 403 W/m 27,1 km/h (4 Bft)
03.06.2015 14:00 19,7 C 17,1 C 57 % 0 lf 1022,8 hPa 0,0 l/m 0,80 h 0,00 h 547 W/m 29,6 km/h (5 Bft)
03.06.2015 15:00 20,1 C 17,9 C 54 % 0 lf 1023,2 hPa 0,0 l/m 0,40 h 0,00 h 439 W/m 25,0 km/h (4 Bft)
03.06.2015 16:00 20,6 C 18,6 C 54 % 0 lf 1023,5 hPa 0,0 l/m 0,57 h 0,00 h 425 W/m 19,0 km/h (3 Bft)
03.06.2015 17:00 20,1 C 17,1 C 55 % 0 lf 1023,7 hPa 0,0 l/m 0,67 h 0,00 h 346 W/m 18,1 km/h (3 Bft)
03.06.2015 18:00 19,5 C 17,8 C 56 % 0 lf 1023,9 hPa 0,0 l/m 0,33 h 0,00 h 195 W/m 16,5 km/h (3 Bft)
03.06.2015 19:00 19,0 C 17,3 C 57 % 0 lf 1024,2 hPa 0,0 l/m 0,33 h 0,00 h 163 W/m 15,0 km/h (3 Bft)
03.06.2015 20:00 18,1 C 16,2 C 61 % 0 lf 1024,7 hPa 0,0 l/m 0,00 h 0,00 h 52 W/m 15,1 km/h (3 Bft)
03.06.2015 21:00 16,8 C 14,4 C 66 % 0 lf 1025,3 hPa 0,0 l/m 0,00 h 0,00 h 18 W/m 7,9 km/h (2 Bft)
03.06.2015 22:00 15,4 C 12,1 C 72 % 0 lf 1025,9 hPa 0,0 l/m 0,00 h 0,00 h 0 W/m 4,6 km/h (1 Bft)
03.06.2015 23:00 14,0 C 11,2 C 77 % 0 lf 1026,2 hPa 0,0 l/m 0,00 h 0,00 h 0 W/m 2,5 km/h (1 Bft)
04.06.2015 00:00 12,7 C 9,9 C 81 % 0 lf 1026,5 hPa 0,0 l/m 0,00 h 0,00 h 0 W/m 0,9 km/h (0 Bft)
04.06.2015 01:00 11,4 C 9,0 C 85 % 0 lf 1026,8 hPa 0,0 l/m 0,00 h 0,00 h 0 W/m 1,7 km/h (1 Bft)
04.06.2015 02:00 10,3 C 8,3 C 87 % 1 lf 1027,0 hPa 0,0 l/m 0,00 h 0,00 h 0 W/m 1,2 km/h (1 Bft)
04.06.2015 03:00 9,6 C 7,6 C 89 % 4 lf 1027,0 hPa 0,0 l/m 0,00 h 0,00 h 0 W/m 2,2 km/h (1 Bft)
04.06.2015 04:00 8,9 C 7,2 C 90 % 14 lf 1027,1 hPa 0,0 l/m 0,00 h 0,00 h 0 W/m 1,8 km/h (1 Bft)
04.06.2015 05:00 8,4 C 6,8 C 91 % 15 lf 1027,4 hPa 0,0 l/m 0,00 h 0,00 h 17 W/m 3,9 km/h (1 Bft)
04.06.2015 06:00 8,2 C 7,7 C 92 % 15 lf 1027,7 hPa 0,0 l/m 0,00 h 0,00 h 46 W/m 4,0 km/h (1 Bft)
04.06.2015 07:00 9,5 C 10,1 C 94 % 3 lf 1027,8 hPa 0,0 l/m 0,20 h 0,00 h 130 W/m 6,1 km/h (2 Bft)
04.06.2015 08:00 12,1 C 12,6 C 93 % 0 lf 1027,8 hPa 0,0 l/m 0,93 h 0,00 h 334 W/m 10,6 km/h (2 Bft)
04.06.2015 09:00 16,1 C 15,3 C 77 % 0 lf 1027,8 hPa 0,0 l/m 1,00 h 0,00 h 547 W/m 11,6 km/h (2 Bft)
04.06.2015 10:00 19,6 C 21,4 C 62 % 0 lf 1027,7 hPa 0,0 l/m 1,00 h 0,00 h 714 W/m 18,4 km/h (3 Bft)
04.06.2015 11:00 21,0 C 22,9 C 56 % 0 lf 1027,5 hPa 0,0 l/m 0,83 h 0,00 h 723 W/m 20,8 km/h (4 Bft)
04.06.2015 12:00 22,3 C 24,2 C 53 % 0 lf 1027,1 hPa 0,0 l/m 0,90 h 0,00 h 837 W/m 17,0 km/h (3 Bft)
04.06.2015 13:00 22,8 C 21,7 C 51 % 0 lf 1026,5 hPa 0,0 l/m 0,73 h 0,00 h 700 W/m 18,3 km/h (3 Bft)
04.06.2015 14:00 24,0 C 22,3 C 49 % 0 lf 1026,0 hPa 0,0 l/m 1,00 h 0,00 h 871 W/m 20,5 km/h (4 Bft)
04.06.2015 15:00 25,2 C 23,0 C 46 % 0 lf 1025,3 hPa 0,0 l/m 1,00 h 0,00 h 806 W/m 16,4 km/h (3 Bft)
04.06.2015 16:00 25,5 C 24,0 C 45 % 0 lf 1024,6 hPa 0,0 l/m 1,00 h 0,00 h 699 W/m 18,6 km/h (3 Bft)
04.06.2015 17:00 25,5 C 18,6 C 45 % 0 lf 1023,7 hPa 0,0 l/m 1,00 h 0,00 h 563 W/m 19,0 km/h (3 Bft)
04.06.2015 18:00 24,5 C 21,0 C 47 % 0 lf 1022,9 hPa 0,0 l/m 0,97 h 0,00 h 405 W/m 19,1 km/h (3 Bft)
04.06.2015 19:00 23,8 C 21,0 C 50 % 0 lf 1022,3 hPa 0,0 l/m 1,00 h 0,00 h 242 W/m 23,3 km/h (4 Bft)
04.06.2015 20:00 22,9 C 20,1 C 54 % 0 lf 1022,0 hPa 0,0 l/m 0,63 h 0,00 h 84 W/m 23,7 km/h (4 Bft)
04.06.2015 21:00 21,5 C 18,0 C 59 % 0 lf 1021,7 hPa 0,0 l/m 0,03 h 0,00 h 20 W/m 15,2 km/h (3 Bft)
04.06.2015 22:00 19,8 C 15,9 C 63 % 0 lf 1021,7 hPa 0,0 l/m 0,00 h 0,00 h 0 W/m 10,0 km/h (2 Bft)
04.06.2015 23:00 18,3 C 14,8 C 66 % 0 lf 1021,6 hPa 0,0 l/m 0,00 h 0,00 h 0 W/m 10,4 km/h (2 Bft)
05.06.2015 00:00 17,0 C 13,2 C 69 % 0 lf 1021,4 hPa 0,0 l/m 0,00 h 0,00 h 0 W/m 3,1 km/h (1 Bft)
05.06.2015 01:00 15,2 C 12,0 C 75 % 0 lf 1021,2 hPa 0,0 l/m 0,00 h 0,00 h 0 W/m 5,6 km/h (1 Bft)
05.06.2015 02:00 14,2 C 11,8 C 80 % 0 lf 1020,8 hPa 0,0 l/m 0,00 h 0,00 h 0 W/m 8,6 km/h (2 Bft)
05.06.2015 03:00 14,2 C 12,5 C 80 % 0 lf 1020,4 hPa 0,0 l/m 0,00 h 0,00 h 0 W/m 11,4 km/h (2 Bft)
05.06.2015 04:00 14,0 C 12,2 C 80 % 0 lf 1019,9 hPa 0,0 l/m 0,00 h 0,00 h 0 W/m 12,3 km/h (3 Bft)
05.06.2015 05:00 13,8 C 12,3 C 81 % 0 lf 1019,5 hPa 0,0 l/m 0,27 h 0,00 h 20 W/m 14,4 km/h (3 Bft)
05.06.2015 06:00 14,3 C 13,2 C 81 % 0 lf 1019,4 hPa 0,0 l/m 0,97 h 0,00 h 92 W/m 16,9 km/h (3 Bft)
05.06.2015 07:00 15,6 C 14,7 C 79 % 0 lf 1019,4 hPa 0,0 l/m 1,00 h 0,00 h 239 W/m 18,7 km/h (3 Bft)
05.06.2015 08:00 18,0 C 16,8 C 74 % 0 lf 1019,1 hPa 0,0 l/m 1,00 h 0,00 h 409 W/m 23,2 km/h (4 Bft)
05.06.2015 09:00 22,1 C 19,7 C 65 % 0 lf 1018,8 hPa 0,0 l/m 1,00 h 0,00 h 570 W/m 22,5 km/h (4 Bft)
05.06.2015 10:00 25,3 C 26,8 C 59 % 0 lf 1018,6 hPa 0,0 l/m 1,00 h 0,00 h 705 W/m 21,9 km/h (4 Bft)
05.06.2015 11:00 28,3 C 30,8 C 54 % 0 lf 1018,3 hPa 0,0 l/m 1,00 h 0,00 h 788 W/m 17,5 km/h (3 Bft)
05.06.2015 12:00 31,1 C 32,8 C 48 % 0 lf 1017,8 hPa 0,0 l/m 0,93 h 0,00 h 828 W/m 19,2 km/h (3 Bft)
05.06.2015 13:00 32,9 C 31,0 C 44 % 0 lf 1017,2 hPa 0,0 l/m 1,00 h 0,00 h 896 W/m 20,2 km/h (4 Bft)
05.06.2015 14:00 33,9 C 30,7 C 43 % 0 lf 1016,5 hPa 0,0 l/m 1,00 h 0,00 h 867 W/m 22,8 km/h (4 Bft)
05.06.2015 15:00 34,6 C 31,6 C 43 % 0 lf 1015,8 hPa 0,0 l/m 1,00 h 0,00 h 789 W/m 23,3 km/h (4 Bft)
05.06.2015 16:00 35,0 C 33,1 C 41 % 0 lf 1015,1 hPa 0,0 l/m 0,87 h 0,00 h 686 W/m 22,3 km/h (4 Bft)
05.06.2015 17:00 34,5 C 31,0 C 41 % 0 lf 1014,1 hPa 0,0 l/m 1,00 h 0,00 h 543 W/m 21,4 km/h (4 Bft)
05.06.2015 18:00 33,4 C 28,9 C 43 % 0 lf 1013,7 hPa 0,0 l/m 0,55 h 0,00 h 294 W/m 14,6 km/h (3 Bft)
05.06.2015 19:00 32,3 C 26,6 C 49 % 0 lf 1013,2 hPa 0,0 l/m 0,00 h 0,00 h 85 W/m 5,6 km/h (1 Bft)
05.06.2015 20:00 29,5 C 23,8 C 58 % 0 lf 1013,3 hPa 0,0 l/m 0,00 h 0,00 h 22 W/m 3,7 km/h (1 Bft)
05.06.2015 21:00 26,5 C 23,2 C 61 % 0 lf 1014,8 hPa 0,0 l/m 0,00 h 0,00 h 8 W/m 25,6 km/h (4 Bft)
05.06.2015 22:00 24,2 C 20,9 C 64 % 0 lf 1015,8 hPa 0,0 l/m 0,00 h 0,00 h 0 W/m 10,5 km/h (2 Bft)
05.06.2015 23:00 22,7 C 20,5 C 69 % 0 lf 1016,6 hPa 0,0 l/m 0,00 h 0,00 h 0 W/m 10,7 km/h (2 Bft)
06.06.2015 00:00 21,6 C 17,9 C 79 % 15 lf 1016,9 hPa 2,6 l/m 0,00 h 0,60 h 0 W/m 15,0 km/h (3 Bft)
06.06.2015 01:00 19,6 C 17,0 C 91 % 15 lf 1016,3 hPa 0,0 l/m 0,00 h 0,00 h 0 W/m 12,9 km/h (3 Bft)
06.06.2015 02:00 18,7 C 16,7 C 94 % 15 lf 1017,5 hPa 0,0 l/m 0,00 h 0,00 h 0 W/m 7,0 km/h (2 Bft)
06.06.2015 03:00 18,3 C 16,6 C 95 % 15 lf 1017,2 hPa 0,0 l/m 0,00 h 0,00 h 0 W/m 6,2 km/h (2 Bft)
06.06.2015 04:00 18,1 C 16,4 C 96 % 15 lf 1017,4 hPa 0,0 l/m 0,00 h 0,00 h 0 W/m 8,8 km/h (2 Bft)
06.06.2015 05:00 18,2 C 16,7 C 97 % 15 lf 1018,0 hPa 0,0 l/m 0,00 h 0,00 h 6 W/m 12,6 km/h (3 Bft)
06.06.2015 06:00 17,4 C 15,8 C 96 % 6 lf 1019,0 hPa 0,0 l/m 0,00 h 0,00 h 34 W/m 21,4 km/h (4 Bft)
06.06.2015 07:00 16,3 C 14,7 C 92 % 0 lf 1020,1 hPa 0,0 l/m 0,00 h 0,00 h 78 W/m 21,2 km/h (4 Bft)
06.06.2015 08:00 16,4 C 14,8 C 90 % 0 lf 1021,0 hPa 0,0 l/m 0,00 h 0,00 h 112 W/m 17,5 km/h (3 Bft)
06.06.2015 09:00 16,5 C 15,2 C 87 % 0 lf 1021,9 hPa 0,0 l/m 0,17 h 0,00 h 187 W/m 17,1 km/h (3 Bft)
06.06.2015 10:00 18,3 C 17,7 C 81 % 0 lf 1022,5 hPa 0,0 l/m 0,47 h 0,00 h 387 W/m 16,3 km/h (3 Bft)
06.06.2015 11:00 18,3 C 17,7 C 79 % 0 lf 1023,3 hPa 0,0 l/m 0,07 h 0,00 h 253 W/m 16,8 km/h (3 Bft)
06.06.2015 12:00 19,0 C 19,4 C 77 % 0 lf 1023,8 hPa 0,0 l/m 0,33 h 0,00 h 346 W/m 16,1 km/h (3 Bft)
06.06.2015 13:00 21,4 C 21,9 C 67 % 0 lf 1023,9 hPa 0,0 l/m 0,70 h 0,00 h 730 W/m 16,7 km/h (3 Bft)
06.06.2015 14:00 22,8 C 22,0 C 59 % 0 lf 1023,8 hPa 0,0 l/m 0,77 h 0,00 h 776 W/m 17,3 km/h (3 Bft)
06.06.2015 15:00 24,0 C 22,8 C 53 % 0 lf 1024,1 hPa 0,0 l/m 0,87 h 0,00 h 749 W/m 18,5 km/h (3 Bft)
06.06.2015 16:00 24,2 C 25,1 C 50 % 0 lf 1024,3 hPa 0,0 l/m 1,00 h 0,00 h 707 W/m 16,6 km/h (3 Bft)
06.06.2015 17:00 23,6 C 17,7 C 49 % 0 lf 1024,3 hPa 0,0 l/m 1,00 h 0,00 h 566 W/m 16,4 km/h (3 Bft)
06.06.2015 18:00 21,9 C 18,9 C 50 % 0 lf 1024,2 hPa 0,0 l/m 0,97 h 0,00 h 414 W/m 17,6 km/h (3 Bft)
06.06.2015 19:00 20,9 C 18,3 C 47 % 0 lf 1024,4 hPa 0,0 l/m 1,00 h 0,00 h 255 W/m 15,9 km/h (3 Bft)
06.06.2015 20:00 19,8 C 17,2 C 47 % 0 lf 1024,9 hPa 0,0 l/m 0,70 h 0,00 h 90 W/m 13,9 km/h (3 Bft)
06.06.2015 21:00 18,2 C 15,6 C 51 % 0 lf 1025,4 hPa 0,0 l/m 0,00 h 0,00 h 14 W/m 9,9 km/h (2 Bft)
06.06.2015 22:00 16,4 C 13,3 C 60 % 0 lf 1026,5 hPa 0,0 l/m 0,00 h 0,00 h 0 W/m 5,3 km/h (1 Bft)
06.06.2015 23:00 14,5 C 11,2 C 64 % 0 lf 1027,1 hPa 0,0 l/m 0,00 h 0,00 h 0 W/m 3,2 km/h (1 Bft)
07.06.2015 00:00 12,8 C 9,8 C 68 % 0 lf 1027,3 hPa 0,0 l/m 0,00 h 0,00 h 0 W/m 1,6 km/h (1 Bft)
07.06.2015 01:00 11,4 C 8,8 C 72 % 0 lf 1027,3 hPa 0,0 l/m 0,00 h 0,00 h 0 W/m 2,2 km/h (1 Bft)
07.06.2015 02:00 10,2 C 8,0 C 76 % 0 lf 1027,7 hPa 0,0 l/m 0,00 h 0,00 h 0 W/m 1,5 km/h (1 Bft)
07.06.2015 03:00 9,2 C 7,3 C 79 % 0 lf 1028,1 hPa 0,0 l/m 0,00 h 0,00 h 0 W/m 2,9 km/h (1 Bft)
07.06.2015 04:00 8,4 C 6,7 C 82 % 0 lf 1028,2 hPa 0,0 l/m 0,00 h 0,00 h 0 W/m 3,3 km/h (1 Bft)
07.06.2015 05:00 7,9 C 6,7 C 84 % 0 lf 1028,3 hPa 0,0 l/m 0,33 h 0,00 h 19 W/m 1,9 km/h (1 Bft)
07.06.2015 06:00 8,0 C 7,3 C 89 % 0 lf 1028,6 hPa 0,0 l/m 0,60 h 0,00 h 80 W/m 2,3 km/h (1 Bft)
07.06.2015 07:00 9,0 C 9,2 C 92 % 0 lf 1029,0 hPa 0,0 l/m 1,00 h 0,00 h 213 W/m 2,4 km/h (1 Bft)
07.06.2015 08:00 11,6 C 11,8 C 87 % 0 lf 1029,1 hPa 0,0 l/m 1,00 h 0,00 h 388 W/m 7,3 km/h (2 Bft)
07.06.2015 09:00 15,4 C 14,4 C 73 % 0 lf 1029,1 hPa 0,0 l/m 1,00 h 0,00 h 576 W/m 9,1 km/h (2 Bft)
07.06.2015 10:00 18,4 C 20,9 C 60 % 0 lf 1029,2 hPa 0,0 l/m 1,00 h 0,00 h 728 W/m 9,6 km/h (2 Bft)
07.06.2015 11:00 19,9 C 22,0 C 54 % 0 lf 1029,0 hPa 0,0 l/m 0,90 h 0,00 h 743 W/m 9,5 km/h (2 Bft)
07.06.2015 12:00 20,8 C 23,3 C 51 % 0 lf 1029,1 hPa 0,0 l/m 0,97 h 0,00 h 880 W/m 14,0 km/h (3 Bft)
07.06.2015 13:00 21,3 C 21,3 C 49 % 0 lf 1028,9 hPa 0,0 l/m 0,70 h 0,00 h 746 W/m 15,1 km/h (3 Bft)
07.06.2015 14:00 21,6 C 20,8 C 47 % 0 lf 1028,8 hPa 0,0 l/m 0,93 h 0,00 h 868 W/m 16,9 km/h (3 Bft)
07.06.2015 15:00 22,4 C 21,3 C 46 % 0 lf 1028,5 hPa 0,0 l/m 1,00 h 0,00 h 824 W/m 17,6 km/h (3 Bft)
07.06.2015 16:00 22,2 C 23,3 C 45 % 0 lf 1028,3 hPa 0,0 l/m 1,00 h 0,00 h 700 W/m 18,7 km/h (3 Bft)
07.06.2015 17:00 22,3 C 20,4 C 44 % 0 lf 1028,0 hPa 0,0 l/m 1,00 h 0,00 h 577 W/m 18,5 km/h (3 Bft)
07.06.2015 18:00 21,1 C 19,3 C 46 % 0 lf 1027,8 hPa 0,0 l/m 0,97 h 0,00 h 424 W/m 19,1 km/h (3 Bft)
07.06.2015 19:00 20,3 C 18,7 C 49 % 0 lf 1027,8 hPa 0,0 l/m 1,00 h 0,00 h 246 W/m 21,0 km/h (4 Bft)
07.06.2015 20:00 19,2 C 17,5 C 53 % 0 lf 1027,9 hPa 0,0 l/m 0,70 h 0,00 h 90 W/m 21,0 km/h (4 Bft)
07.06.2015 21:00 17,8 C 15,8 C 57 % 0 lf 1028,2 hPa 0,0 l/m 0,00 h 0,00 h 15 W/m 19,0 km/h (3 Bft)
07.06.2015 22:00 16,1 C 14,2 C 63 % 0 lf 1028,8 hPa 0,0 l/m 0,00 h 0,00 h 0 W/m 19,7 km/h (3 Bft)
07.06.2015 23:00 14,4 C 12,6 C 66 % 0 lf 1029,3 hPa 0,0 l/m 0,00 h 0,00 h 0 W/m 19,1 km/h (3 Bft)
Min-Datum _ 07.06.15 04.06.15 05.06.15 01.06.15 01.06.15 - - - - 03.06.15
_ Min-Zeit 05:48 05:08 16:06 08:28 00:00 - - - - 23:08
Minimum _ 7,7 C 6,7 C 40 % 0 lf 1009,3 hPa - - - - 0,0 km/h (0 Bft)
Max-Datum _ 05.06.15 05.06.15 01.06.15 01.06.15 07.06.15 06.06.15 01.06.15 01.06.15 03.06.15 02.06.15
_ Max-Zeit 16:32 16:12 07:58 00:00 10:24 00:36 06:08 00:00 12:28 13:12
Maximum _ 35,2 C 35,6 C 97 % 15 lf 1029,3 hPa 2,6 l/m 0,03 h 0,03 h 1131 W/m 73,4 km/h
SW (8 Bft)
Durchschnitt _ 17,9 C 16,2 C 69 % 2 lf 1020,0 hPa #5,0 l/m #65:03 h #6:13 h 361 W/m 18,0 km/h (3 Bft)
© 2015 W. Hausmann